Mikela P. — A8UB7 — position and weather

sailwx.info

Track history (hours):
 
Tides and Currents Weather Stations Pressure Air Temp Water Temp Dewpoint Dewpoint Depression Visibility Wind Speed Wind Dir Waves Ship Positions

Mikela P.

Last reported at 2017-Oct-09 19:28 UTC. Time now 2017-Oct-18 18:46 UTC.
Position S 05°00' E 010°57'.
Warning: this ship's position is 8 days out of date.

Length 274 m; draft 14 m.

Type: Ship. MMSI: 636014469.

Date/timePositionNaut miles runAvg speedWind from/ knotsBaromVisibWave heightAir tempDewpointWater temp
2017-Oct-09 19:28S 05°00' E 010°57'612.9
2017-Oct-09 19:00S 05°02' E 011°03'612.8
2017-Oct-09 18:30S 05°04' E 011°09'612.6
2017-Oct-09 18:00S 05°06' E 011°15'612.3
2017-Oct-09 17:30S 05°05' E 011°21'612.3
2017-Oct-09 17:00S 05°03' E 011°27'510.8
2017-Oct-09 16:30S 04°59' E 011°31'  
2017-Oct-07 05:22S 04°57' E 011°32'514.5
2017-Oct-07 05:00S 05°02' E 011°30'611.3
2017-Oct-07 04:30S 05°04' E 011°25'611.1
2017-Oct-07 04:00S 05°06' E 011°19'511.1
2017-Oct-07 03:30S 05°07' E 011°14'510.4
2017-Oct-07 03:00S 05°08' E 011°09'510.2
2017-Oct-07 02:30S 05°06' E 011°04'510.2
2017-Oct-07 02:00S 05°04' E 010°59'510.5
2017-Oct-07 01:29S 05°03' E 010°54'  
Track history (hours):
 
Tides and Currents Weather Stations Pressure Air Temp Water Temp Dewpoint Dewpoint Depression Visibility Wind Speed Wind Dir Waves Ship Positions

Mikela P.

Last reported at 2017-Oct-09 19:28 UTC. Time now 2017-Oct-18 18:46 UTC.
Position S 05°00' E 010°57'.
Warning: this ship's position is 8 days out of date.

Length 274 m; draft 14 m.

Type: Ship. MMSI: 636014469.

Date/timePositionNaut miles runAvg speedWind from/ knotsBaromVisibWave heightAir tempDewpointWater temp
2017-Oct-09 19:28S 05°00' E 010°57'612.9
2017-Oct-09 19:00S 05°02' E 011°03'612.8
2017-Oct-09 18:30S 05°04' E 011°09'612.6
2017-Oct-09 18:00S 05°06' E 011°15'612.3
2017-Oct-09 17:30S 05°05' E 011°21'612.3
2017-Oct-09 17:00S 05°03' E 011°27'510.8
2017-Oct-09 16:30S 04°59' E 011°31'  
2017-Oct-07 05:22S 04°57' E 011°32'514.5
2017-Oct-07 05:00S 05°02' E 011°30'611.3
2017-Oct-07 04:30S 05°04' E 011°25'611.1
2017-Oct-07 04:00S 05°06' E 011°19'511.1
2017-Oct-07 03:30S 05°07' E 011°14'510.4
2017-Oct-07 03:00S 05°08' E 011°09'510.2
2017-Oct-07 02:30S 05°06' E 011°04'510.2
2017-Oct-07 02:00S 05°04' E 010°59'510.5
2017-Oct-07 01:29S 05°03' E 010°54'  

Dump ship's entire track history